Time;durP1;ratioP1;P1;durP2;ratioP2;P2;SDS_P1;SDS_P2;PMS_P1;PMS_P2;Temp;Humidity;BMP_temperature;BMP_pressure;BME280_temperature;BME280_humidity;BME280_pressure;Samples;Min_cycle;Max_cycle;Signal;HPM_P1;HPM_P2
2023/01/15 00:01:02;;;;;;;57.38;32.00;;;4.30;99.90;;;;;;4964086;29;20066;-79
2023/01/15 00:03:29;;;;;;;55.60;30.17;;;4.40;99.90;;;;;;4964459;29;20030;-79
2023/01/15 00:05:54;;;;;;;63.35;35.85;;;4.30;99.90;;;;;;4963998;29;20031;-79
2023/01/15 00:08:20;;;;;;;;;;;4.40;99.90;;;;;;4964254;29;20038;-78
2023/01/15 00:10:46;;;;;;;52.08;30.58;;;4.40;99.90;;;;;;4964890;29;19954;-79
2023/01/15 00:13:11;;;;;;;;;;;4.40;99.90;;;;;;4965181;29;20024;-80
2023/01/15 00:15:37;;;;;;;65.68;33.28;;;4.40;99.90;;;;;;4973414;29;19912;-80
2023/01/15 00:18:03;;;;;;;;;;;4.50;99.90;;;;;;4970450;29;20058;-80
2023/01/15 00:20:29;;;;;;;57.40;32.25;;;4.50;99.90;;;;;;4948820;29;19906;-79
2023/01/15 00:22:54;;;;;;;;;;;4.40;99.90;;;;;;4947598;29;20111;-80
2023/01/15 00:28:04;;;;;;;68.80;34.25;;;4.40;99.90;;;;;;4964132;29;20038;-79
2023/01/15 00:30:30;;;;;;;;;;;4.40;99.90;;;;;;4947331;29;20043;-79
2023/01/15 00:32:58;;;;;;;69.63;34.90;;;4.30;99.90;;;;;;4964396;29;20365;-79
2023/01/15 00:35:24;;;;;;;69.10;35.35;;;4.30;99.90;;;;;;4946890;29;20031;-79
2023/01/15 00:37:50;;;;;;;71.45;35.78;;;4.30;99.90;;;;;;4947283;29;20031;-80
2023/01/15 00:40:20;;;;;;;65.10;32.88;;;4.30;99.90;;;;;;4963317;29;20023;-80
2023/01/15 00:42:46;;;;;;;70.30;36.22;;;4.30;99.90;;;;;;4948921;29;20031;-80
2023/01/15 00:45:11;;;;;;;;;;;4.30;99.90;;;;;;4950190;29;20063;-80
2023/01/15 00:47:39;;;;;;;66.45;32.75;;;4.30;99.90;;;;;;4966302;29;19914;-80
2023/01/15 00:50:07;;;;;;;66.35;33.28;;;4.30;99.90;;;;;;4949443;29;20130;-79
2023/01/15 00:52:32;;;;;;;65.40;33.28;;;4.30;99.90;;;;;;4966807;29;20030;-80
2023/01/15 00:54:58;;;;;;;;;;;4.30;99.90;;;;;;4964387;29;20408;-79
2023/01/15 00:57:24;;;;;;;71.07;32.42;;;4.40;99.90;;;;;;4943790;29;20013;-79
2023/01/15 00:59:50;;;;;;;69.53;33.97;;;4.40;99.90;;;;;;4943624;29;20038;-79
2023/01/15 01:02:15;;;;;;;;;;;4.40;99.90;;;;;;4963004;29;20035;-79
2023/01/15 01:04:41;;;;;;;73.97;32.28;;;4.40;99.90;;;;;;4962912;29;19906;-79
2023/01/15 01:07:07;;;;;;;;;;;4.40;99.90;;;;;;4945999;29;20094;-80
2023/01/15 01:09:33;;;;;;;66.75;30.75;;;4.40;99.90;;;;;;4944858;28;19946;-80
2023/01/15 01:11:58;;;;;;;;;;;4.30;99.90;;;;;;4942504;29;20019;-79
2023/01/15 01:14:24;;;;;;;66.88;30.15;;;4.30;99.90;;;;;;4960719;28;19925;-79
2023/01/15 01:16:49;;;;;;;;;;;4.30;99.90;;;;;;4960399;29;20027;-79
2023/01/15 01:19:18;;;;;;;68.10;30.83;;;4.30;99.90;;;;;;4959969;29;20422;-80
2023/01/15 01:21:45;;;;;;;69.50;30.40;;;4.30;99.90;;;;;;4960165;29;20106;-79
2023/01/15 01:24:13;;;;;;;67.80;31.40;;;4.30;99.90;;;;;;4958333;29;20031;-79
2023/01/15 01:26:39;;;;;;;76.22;35.40;;;4.30;99.90;;;;;;4959565;29;20904;-78
2023/01/15 01:29:05;;;;;;;;;;;4.30;99.90;;;;;;4941480;29;20122;-79
2023/01/15 01:31:31;;;;;;;65.70;28.33;;;4.30;99.90;;;;;;4942362;29;19915;-79
2023/01/15 01:33:58;;;;;;;;;;;4.30;99.90;;;;;;4944613;29;20496;-79
2023/01/15 01:36:29;;;;;;;61.38;28.83;;;4.30;99.90;;;;;;4960771;29;19914;-79
2023/01/15 01:38:55;;;;;;;67.85;30.33;;;4.20;99.90;;;;;;4961682;29;20063;-79
2023/01/15 01:41:21;;;;;;;70.65;33.03;;;4.20;99.90;;;;;;4963039;29;20038;-79
2023/01/15 01:43:51;;;;;;;;;;;4.20;99.90;;;;;;4962690;29;20027;-79
2023/01/15 01:46:17;;;;;;;61.25;29.35;;;4.30;99.90;;;;;;4961856;29;19934;-79
2023/01/15 01:48:43;;;;;;;74.00;31.40;;;4.20;99.90;;;;;;4944135;29;20045;-80
2023/01/15 01:51:09;;;;;;;;;;;4.20;99.90;;;;;;4962574;29;20038;-78
2023/01/15 01:53:35;;;;;;;67.38;30.77;;;4.20;99.90;;;;;;4962277;28;19918;-80
2023/01/15 01:56:01;;;;;;;;;;;4.20;99.90;;;;;;4947819;29;20092;-79
2023/01/15 01:58:30;;;;;;;59.25;28.33;;;4.20;99.90;;;;;;4948662;29;19985;-79
2023/01/15 02:00:56;;;;;;;58.78;27.67;;;4.30;99.90;;;;;;4946947;29;20122;-79
2023/01/15 02:03:24;;;;;;;;;;;4.20;99.90;;;;;;4948806;29;20069;-79
2023/01/15 02:05:54;;;;;;;68.68;28.95;;;4.20;99.90;;;;;;4964920;29;19906;-79
2023/01/15 02:08:21;;;;;;;74.28;31.58;;;4.20;99.90;;;;;;4964044;29;20031;-79
2023/01/15 02:10:51;;;;;;;75.38;30.42;;;4.20;99.90;;;;;;4961727;29;20050;-79
2023/01/15 02:13:37;;;;;;;68.00;31.05;;;4.20;99.90;;;;;;4947329;29;20027;-80
2023/01/15 02:16:33;;;;;;;63.80;28.98;;;4.20;99.90;;;;;;4961755;29;20027;-79
2023/01/15 02:19:18;;;;;;;66.78;29.00;;;4.20;99.90;;;;;;4920787;29;20047;-80
2023/01/15 02:21:49;;;;;;;62.53;29.40;;;4.20;99.90;;;;;;4946817;29;20028;-79
2023/01/15 02:24:24;;;;;;;66.65;28.15;;;4.20;99.90;;;;;;4947099;29;20055;-79
2023/01/15 02:27:08;;;;;;;62.38;27.05;;;4.20;99.90;;;;;;4946304;29;20051;-78
2023/01/15 02:29:37;;;;;;;64.95;27.48;;;4.20;99.90;;;;;;4964324;29;20078;-80
2023/01/15 02:32:09;;;;;;;69.50;30.58;;;4.20;99.90;;;;;;4948534;29;20385;-79
2023/01/15 02:34:42;;;;;;;75.75;31.73;;;4.10;99.90;;;;;;4946953;29;20039;-79
2023/01/15 02:37:12;;;;;;;74.72;30.70;;;4.10;99.90;;;;;;4955040;29;20488;-80
2023/01/15 02:39:41;;;;;;;76.28;30.45;;;4.20;99.90;;;;;;4966076;29;20039;-79
2023/01/15 02:42:09;;;;;;;66.95;31.42;;;4.10;99.90;;;;;;4961701;29;20018;-79
2023/01/15 02:44:39;;;;;;;68.97;29.35;;;4.10;99.90;;;;;;4943483;29;20074;-78
2023/01/15 02:47:08;;;;;;;64.38;29.45;;;4.10;99.90;;;;;;4944962;29;20039;-79
2023/01/15 02:49:36;;;;;;;66.50;29.75;;;4.10;99.90;;;;;;4965280;29;20028;-79
2023/01/15 02:52:08;;;;;;;69.78;31.83;;;4.10;99.90;;;;;;4966640;29;20463;-79
2023/01/15 02:54:41;;;;;;;69.75;30.10;;;4.10;99.90;;;;;;4968855;29;20027;-80
2023/01/15 02:57:10;;;;;;;75.72;31.17;;;4.10;99.90;;;;;;4952449;29;20040;-79
2023/01/15 02:59:41;;;;;;;70.13;29.17;;;4.00;99.90;;;;;;4947116;29;20027;-79
2023/01/15 03:02:12;;;;;;;64.97;29.15;;;4.00;99.90;;;;;;4950002;29;20038;-80
2023/01/15 03:05:05;;;;;;;72.28;29.00;;;4.00;99.90;;;;;;4967655;28;20023;-79
2023/01/15 03:07:51;;;;;;;72.20;28.50;;;4.10;99.90;;;;;;4942209;29;20408;-80
2023/01/15 03:10:17;;;;;;;80.43;30.23;;;4.00;99.90;;;;;;4951770;29;20126;-80
2023/01/15 03:13:04;;;;;;;69.47;29.08;;;4.00;99.90;;;;;;4953546;29;20130;-80
2023/01/15 03:18:38;;;;;;;66.88;28.13;;;4.00;99.90;;;;;;4969521;29;19930;-79
2023/01/15 03:21:08;;;;;;;65.38;28.00;;;4.00;99.90;;;;;;4964828;29;20024;-79
2023/01/15 03:23:42;;;;;;;67.07;29.10;;;4.10;99.90;;;;;;4941290;29;20135;-79
2023/01/15 03:26:07;;;;;;;69.47;29.30;;;4.10;99.90;;;;;;4940848;29;20027;-80
2023/01/15 03:28:35;;;;;;;;;;;4.10;99.90;;;;;;4958121;29;20094;-79
2023/01/15 03:31:01;;;;;;;78.88;29.42;;;4.10;99.90;;;;;;4943739;29;19918;-80
2023/01/15 03:33:28;;;;;;;72.72;30.02;;;4.00;99.90;;;;;;4944303;29;20031;-80
2023/01/15 03:35:57;;;;;;;71.53;28.92;;;4.00;99.90;;;;;;4941714;29;20042;-79
2023/01/15 03:38:34;;;;;;;66.03;27.55;;;4.00;99.90;;;;;;4940537;29;20027;-80
2023/01/15 03:41:02;;;;;;;73.38;26.67;;;4.10;99.90;;;;;;4939587;29;20034;-78
2023/01/15 03:44:00;;;;;;;71.00;28.67;;;4.00;99.90;;;;;;4961769;29;20034;-80
2023/01/15 03:47:13;;;;;;;81.35;29.27;;;3.90;99.90;;;;;;4940539;29;20489;-79
2023/01/15 03:49:49;;;;;;;74.43;28.02;;;3.90;99.90;;;;;;4886911;29;20534;-79
2023/01/15 03:52:17;;;;;;;68.75;26.52;;;3.90;99.90;;;;;;4902076;29;20071;-79
2023/01/15 03:54:57;;;;;;;74.78;29.10;;;3.90;99.90;;;;;;4921480;29;20053;-80
2023/01/15 03:57:33;;;;;;;72.28;27.58;;;3.90;99.90;;;;;;4967495;29;20230;-80
2023/01/15 04:00:02;;;;;;;68.75;29.20;;;3.90;99.90;;;;;;4961423;29;20043;-79
2023/01/15 04:02:29;;;;;;;73.70;28.83;;;3.90;99.90;;;;;;4959305;29;20034;-79
2023/01/15 04:04:57;;;;;;;79.85;29.95;;;3.90;99.90;;;;;;4941375;29;20038;-80
2023/01/15 04:07:24;;;;;;;76.63;28.80;;;3.90;99.90;;;;;;4958716;29;20034;-80
2023/01/15 04:09:50;;;;;;;73.78;28.67;;;3.90;99.90;;;;;;4959118;28;20122;-79
2023/01/15 04:12:16;;;;;;;;;;;3.90;99.90;;;;;;4940080;29;20063;-79
2023/01/15 04:14:42;;;;;;;101.85;28.98;;;3.90;99.90;;;;;;4941380;29;20379;-79
2023/01/15 04:17:07;;;;;;;;;;;3.80;99.90;;;;;;4941304;29;20038;-79
2023/01/15 04:19:33;;;;;;;71.28;26.05;;;3.80;99.90;;;;;;4939781;29;19911;-79
2023/01/15 04:21:58;;;;;;;;;;;3.80;99.90;;;;;;4940177;29;20043;-79
2023/01/15 04:24:24;;;;;;;106.32;24.95;;;3.70;99.90;;;;;;4942710;29;19918;-79
2023/01/15 04:26:50;;;;;;;;;;;3.60;99.90;;;;;;4959478;28;20110;-79
2023/01/15 04:29:16;;;;;;;69.10;23.27;;;3.60;99.90;;;;;;4941144;29;19957;-79
2023/01/15 04:31:41;;;;;;;;;;;3.60;99.90;;;;;;4942271;29;20451;-79
2023/01/15 04:34:07;;;;;;;64.43;23.50;;;3.60;99.90;;;;;;4942495;29;19922;-80
2023/01/15 04:36:34;;;;;;;;;;;3.60;99.90;;;;;;4962152;29;20489;-79
2023/01/15 04:39:06;;;;;;;80.60;25.05;;;3.60;99.90;;;;;;4939334;29;19917;-79
2023/01/15 04:44:16;;;;;;;147.20;28.25;;;3.60;99.90;;;;;;4958187;29;20030;-79
2023/01/15 04:46:43;;;;;;;;;;;3.60;99.90;;;;;;4941335;29;20027;-79
2023/01/15 04:49:12;;;;;;;163.38;28.75;;;3.60;99.90;;;;;;4959871;29;19911;-80
2023/01/15 04:51:38;;;;;;;133.05;29.13;;;3.60;99.90;;;;;;4946775;29;20527;-80
2023/01/15 04:54:09;;;;;;;277.33;32.45;;;3.60;99.90;;;;;;4963023;29;20378;-79
2023/01/15 04:56:46;;;;;;;214.40;30.80;;;3.50;99.90;;;;;;4940689;28;20413;-80
2023/01/15 04:59:14;;;;;;;98.13;30.70;;;3.50;99.90;;;;;;4948477;29;20039;-79
2023/01/15 05:01:39;;;;;;;147.05;31.40;;;3.50;99.90;;;;;;4942986;29;20023;-79
2023/01/15 05:04:05;;;;;;;;;;;3.50;99.90;;;;;;4938206;29;20501;-78
2023/01/15 05:06:31;;;;;;;114.45;29.00;;;3.50;99.90;;;;;;4937097;29;20400;-79
2023/01/15 05:08:58;;;;;;;501.67;37.45;;;3.60;99.90;;;;;;4955539;29;20027;-78
2023/01/15 05:11:24;;;;;;;441.17;37.35;;;3.60;99.90;;;;;;4939052;29;20126;-78
2023/01/15 05:13:50;;;;;;;;;;;3.50;99.90;;;;;;4938619;29;20143;-80
2023/01/15 05:16:23;;;;;;;329.73;33.55;;;3.50;99.90;;;;;;4938434;29;19934;-79
2023/01/15 05:18:50;;;;;;;458.17;33.30;;;3.50;99.90;;;;;;4938223;29;20090;-79
2023/01/15 05:21:22;;;;;;;434.15;33.45;;;3.50;99.90;;;;;;4939398;29;20034;-78
2023/01/15 05:23:52;;;;;;;231.27;32.72;;;3.50;99.90;;;;;;4958343;29;20031;-79
2023/01/15 05:26:20;;;;;;;448.17;32.10;;;3.50;99.90;;;;;;4940657;29;20027;-79
2023/01/15 05:28:46;;;;;;;229.65;27.33;;;3.40;99.90;;;;;;4942935;29;20031;-80
2023/01/15 05:31:14;;;;;;;375.20;29.50;;;3.40;99.90;;;;;;4961401;29;20043;-78
2023/01/15 05:33:40;;;;;;;497.48;30.15;;;3.30;99.90;;;;;;4943243;29;20035;-79
2023/01/15 05:36:11;;;;;;;240.63;27.35;;;3.40;99.90;;;;;;4942776;29;20143;-79
2023/01/15 05:38:37;;;;;;;489.75;31.33;;;3.30;99.90;;;;;;4943148;29;20035;-80
2023/01/15 05:43:50;;;;;;;332.70;25.45;;;3.30;99.90;;;;;;4956849;29;19912;-78
2023/01/15 05:46:16;;;;;;;;;;;3.30;99.90;;;;;;4956723;29;20027;-76
2023/01/15 05:48:41;;;;;;;175.60;20.80;;;3.30;99.90;;;;;;4939359;29;20482;-78
2023/01/15 05:51:07;;;;;;;;;;;3.20;99.90;;;;;;4939842;29;20038;-78
2023/01/15 05:53:33;;;;;;;230.18;23.75;;;3.20;99.90;;;;;;4960016;29;19920;-79
2023/01/15 05:56:03;;;;;;;70.00;22.02;;;3.10;99.90;;;;;;4940743;29;20031;-76
2023/01/15 05:58:29;;;;;;;275.27;28.98;;;3.20;99.90;;;;;;4958200;29;20102;-79
2023/01/15 06:00:54;;;;;;;;;;;3.20;99.90;;;;;;4942228;29;20035;-79
2023/01/15 06:03:24;;;;;;;308.02;28.50;;;3.10;99.90;;;;;;4959272;29;19907;-79
2023/01/15 06:05:54;;;;;;;483.50;33.22;;;3.10;99.90;;;;;;4958615;29;20035;-79
2023/01/15 06:08:23;;;;;;;586.47;32.78;;;3.10;99.90;;;;;;4941233;29;20031;-79
2023/01/15 06:10:49;;;;;;;593.47;29.98;;;3.10;99.90;;;;;;4941305;29;20579;-79
2023/01/15 06:13:16;;;;;;;452.02;26.80;;;3.20;99.90;;;;;;4959266;29;20030;-79
2023/01/15 06:15:42;;;;;;;592.00;31.48;;;3.10;99.90;;;;;;4957784;29;20078;-77
2023/01/15 06:18:08;;;;;;;481.75;27.92;;;3.10;99.90;;;;;;4939376;29;20019;-76
2023/01/15 06:20:34;;;;;;;;;;;3.10;99.90;;;;;;4939610;29;20038;-77
2023/01/15 06:23:00;;;;;;;480.67;27.60;;;3.00;99.90;;;;;;4939785;29;19910;-76
2023/01/15 06:25:26;;;;;;;;;;;2.90;99.90;;;;;;4939920;29;20496;-77
2023/01/15 06:27:52;;;;;;;251.50;22.58;;;2.90;99.90;;;;;;4956506;29;19914;-77
2023/01/15 06:30:17;;;;;;;;;;;2.90;99.90;;;;;;4957157;29;20046;-75
2023/01/15 06:32:43;;;;;;;333.05;18.20;;;2.90;99.90;;;;;;4956307;28;19930;-76
2023/01/15 06:35:09;;;;;;;;;;;2.90;99.90;;;;;;4939533;29;20054;-75
2023/01/15 06:37:35;;;;;;;477.60;29.73;;;3.00;99.90;;;;;;4955750;29;19910;-77
2023/01/15 06:40:00;;;;;;;;;;;2.90;99.90;;;;;;4956904;28;20457;-77
2023/01/15 06:47:56;;;;;;;512.67;29.20;;;2.80;99.90;;;;;;4955247;29;20050;-78
2023/01/15 06:50:24;;;;;;;520.03;32.45;;;2.80;99.90;;;;;;4937806;29;20311;-77
2023/01/15 06:52:50;;;;;;;432.88;33.30;;;2.80;99.90;;;;;;4955631;29;20481;-77
2023/01/15 06:55:17;;;;;;;434.83;29.92;;;2.80;99.90;;;;;;4937360;29;20059;-77
2023/01/15 06:57:44;;;;;;;324.85;27.65;;;2.80;99.90;;;;;;4938608;29;20043;-77
2023/01/15 07:00:11;;;;;;;294.67;26.75;;;2.80;99.90;;;;;;4940326;29;20035;-78
2023/01/15 07:02:36;;;;;;;314.83;25.15;;;2.80;99.90;;;;;;4957001;29;20031;-78
2023/01/15 07:05:03;;;;;;;;;;;2.90;99.90;;;;;;4957562;29;20090;-77
2023/01/15 07:07:29;;;;;;;465.23;25.47;;;2.90;99.90;;;;;;4939683;29;20376;-78
2023/01/15 07:09:55;;;;;;;;;;;2.80;99.90;;;;;;4940090;29;20318;-77
2023/01/15 07:12:21;;;;;;;541.63;25.45;;;2.80;99.90;;;;;;4956615;29;19956;-77
2023/01/15 07:14:47;;;;;;;434.10;25.45;;;2.80;99.90;;;;;;4957077;29;20091;-77
2023/01/15 07:17:13;;;;;;;;;;;2.80;99.90;;;;;;4940490;29;20027;-78
2023/01/15 07:19:38;;;;;;;443.00;26.10;;;2.80;99.90;;;;;;4958831;29;19945;-78
2023/01/15 07:22:05;;;;;;;;;;;2.80;99.90;;;;;;4958338;29;20058;-77
2023/01/15 07:24:31;;;;;;;375.87;28.13;;;2.70;99.90;;;;;;4938026;29;19954;-77
2023/01/15 07:26:56;;;;;;;;;;;2.70;99.90;;;;;;4954930;29;20035;-78
2023/01/15 07:29:22;;;;;;;331.25;22.98;;;2.70;99.90;;;;;;4954364;29;19917;-78
2023/01/15 07:31:48;;;;;;;;;;;2.70;99.90;;;;;;4954950;29;20403;-77
2023/01/15 07:34:14;;;;;;;113.70;20.30;;;2.70;99.90;;;;;;4936058;29;19906;-77
2023/01/15 07:36:40;;;;;;;;;;;2.80;99.90;;;;;;4937781;29;20175;-77
2023/01/15 07:39:07;;;;;;;101.38;18.50;;;2.80;99.90;;;;;;4935563;29;19914;-76
2023/01/15 07:49:48;;;;;;;200.63;48.40;;;3.00;99.90;;;;;;4954233;29;20046;-77
2023/01/15 07:52:18;;;;;;;165.40;25.40;;;3.00;99.90;;;;;;4952354;29;20023;-78
2023/01/15 07:54:45;;;;;;;174.15;30.55;;;3.10;99.90;;;;;;4936015;29;20031;-76
2023/01/15 07:57:14;;;;;;;155.50;25.50;;;3.10;99.90;;;;;;4952786;28;20043;-77
2023/01/15 07:59:39;;;;;;;91.93;21.98;;;3.10;99.90;;;;;;4953119;29;20082;-76
2023/01/15 08:02:05;;;;;;;;;;;3.20;99.90;;;;;;4952670;28;20110;-76
2023/01/15 08:04:31;;;;;;;97.90;20.38;;;3.20;99.90;;;;;;4953106;29;19910;-77
2023/01/15 08:07:00;;;;;;;;;;;3.20;99.90;;;;;;4953898;29;20097;-77
2023/01/15 08:09:27;;;;;;;151.25;24.08;;;3.30;99.90;;;;;;4935980;29;19922;-76
2023/01/15 08:17:22;;;;;;;151.48;21.48;;;3.30;99.90;;;;;;4953162;29;20189;-76
2023/01/15 08:19:47;;;;;;;;;;;3.40;99.90;;;;;;4953914;29;20531;-77
2023/01/15 08:22:13;;;;;;;184.93;37.45;;;3.30;99.90;;;;;;4935325;29;19906;-77
2023/01/15 08:24:38;;;;;;;;;;;3.30;99.90;;;;;;4936090;29;20062;-77
2023/01/15 08:27:05;;;;;;;95.70;21.90;;;3.40;99.90;;;;;;4936138;29;19907;-77
2023/01/15 08:29:30;;;;;;;;;;;3.40;99.90;;;;;;4935650;29;20046;-76
2023/01/15 08:31:56;;;;;;;77.45;20.35;;;3.50;99.90;;;;;;4951803;28;19954;-79
2023/01/15 08:34:23;;;;;;;;;;;3.50;99.90;;;;;;4952085;29;20028;-78
2023/01/15 08:36:51;;;;;;;141.85;24.17;;;3.50;99.90;;;;;;4955072;28;19910;-78
2023/01/15 08:39:18;;;;;;;156.85;25.65;;;3.50;99.90;;;;;;4937748;29;20028;-78
2023/01/15 08:41:43;;;;;;;105.72;23.55;;;3.60;99.90;;;;;;4939465;29;20023;-79
2023/01/15 08:44:09;;;;;;;;;;;3.60;99.90;;;;;;4956084;29;20666;-78
2023/01/15 08:46:35;;;;;;;129.23;26.17;;;3.70;99.90;;;;;;4940213;29;19910;-79
2023/01/15 08:49:00;;;;;;;;;;;3.60;99.90;;;;;;4958995;29;20038;-79
2023/01/15 08:51:26;;;;;;;106.22;37.47;;;3.60;99.90;;;;;;4958875;29;19945;-78
2023/01/15 08:53:52;;;;;;;;;;;3.60;99.90;;;;;;4957545;29;20038;-79
2023/01/15 08:56:19;;;;;;;148.60;41.10;;;3.70;99.90;;;;;;4954173;29;19911;-78
2023/01/15 08:58:46;;;;;;;192.65;49.10;;;3.70;99.90;;;;;;4957668;29;20121;-79
2023/01/15 09:01:15;;;;;;;130.00;39.70;;;3.60;99.90;;;;;;4958203;29;20019;-79
2023/01/15 09:03:42;;;;;;;191.45;54.97;;;3.60;99.90;;;;;;4958960;28;20416;-79
2023/01/15 09:06:09;;;;;;;154.38;48.65;;;3.70;99.90;;;;;;4961890;29;20037;-79
2023/01/15 09:08:36;;;;;;;119.55;32.05;;;3.70;99.90;;;;;;4963049;29;20027;-79
2023/01/15 09:11:03;;;;;;;112.47;31.63;;;3.70;99.90;;;;;;4944801;29;20042;-77
2023/01/15 09:13:29;;;;;;;120.85;34.25;;;3.80;99.90;;;;;;4942456;29;20055;-78
2023/01/15 09:16:05;;;;;;;96.80;31.67;;;3.80;99.90;;;;;;4956226;29;20027;-77
2023/01/15 09:18:33;;;;;;;109.03;33.88;;;3.80;99.90;;;;;;4937989;29;20117;-77
2023/01/15 09:20:58;;;;;;;108.70;32.63;;;3.80;99.90;;;;;;4956437;29;20031;-76
2023/01/15 09:23:24;;;;;;;;;;;3.90;99.90;;;;;;4955567;28;20035;-77
2023/01/15 09:25:54;;;;;;;101.72;37.00;;;3.80;99.90;;;;;;4955602;29;19956;-77
2023/01/15 09:28:20;;;;;;;87.47;34.15;;;3.90;99.90;;;;;;4937501;29;20027;-78
2023/01/15 09:30:45;;;;;;;;;;;4.00;99.90;;;;;;4939423;29;20078;-77
2023/01/15 09:33:12;;;;;;;93.47;32.78;;;4.00;99.90;;;;;;4955248;28;19956;-78
2023/01/15 09:35:37;;;;;;;85.20;34.88;;;4.00;99.90;;;;;;4938137;29;20058;-77
2023/01/15 09:38:03;;;;;;;;;;;4.10;99.90;;;;;;4955332;29;20070;-77
2023/01/15 09:40:54;;;;;;;72.18;28.88;;;4.10;99.90;;;;;;4955469;29;19917;-78
2023/01/15 09:43:51;;;;;;;78.72;35.88;;;4.20;99.90;;;;;;4956061;29;20034;-77
2023/01/15 09:46:30;;;;;;;74.57;30.80;;;4.10;99.90;;;;;;4956699;29;20399;-78
2023/01/15 09:49:08;;;;;;;78.57;29.92;;;4.20;99.90;;;;;;4938181;29;20066;-77
2023/01/15 09:52:02;;;;;;;61.88;26.70;;;4.20;99.90;;;;;;4938360;29;20075;-78
2023/01/15 09:54:34;;;;;;;78.30;34.25;;;4.20;99.90;;;;;;4954895;28;20085;-78
2023/01/15 09:57:03;;;;;;;75.28;32.40;;;4.20;99.90;;;;;;4942258;29;20063;-78
2023/01/15 09:59:33;;;;;;;69.82;30.67;;;4.30;99.90;;;;;;4935495;29;20059;-77
2023/01/15 10:02:11;;;;;;;69.18;30.27;;;4.30;99.90;;;;;;4934079;29;20032;-78
2023/01/15 10:04:44;;;;;;;68.72;29.25;;;4.40;99.90;;;;;;4917428;29;20032;-77
2023/01/15 10:07:29;;;;;;;68.07;30.58;;;4.50;99.90;;;;;;4934183;29;20035;-79
2023/01/15 10:10:04;;;;;;;68.47;33.58;;;4.50;99.90;;;;;;4934697;29;20032;-77
2023/01/15 10:12:34;;;;;;;72.18;34.75;;;4.60;99.90;;;;;;4919044;29;20420;-78
2023/01/15 10:15:06;;;;;;;77.07;35.22;;;4.60;99.90;;;;;;4935072;29;20027;-78
2023/01/15 10:17:45;;;;;;;64.43;30.38;;;4.60;99.90;;;;;;4935474;29;20401;-77
2023/01/15 10:20:21;;;;;;;66.90;29.30;;;4.70;99.90;;;;;;4918295;29;20523;-78
2023/01/15 10:23:01;;;;;;;65.57;29.27;;;4.70;99.90;;;;;;4937894;29;20028;-76
2023/01/15 10:25:38;;;;;;;58.40;28.60;;;4.70;99.90;;;;;;4936847;29;20031;-79
2023/01/15 10:28:22;;;;;;;69.60;31.13;;;4.70;99.90;;;;;;4919550;29;20028;-78
2023/01/15 10:30:54;;;;;;;62.58;30.23;;;4.70;99.90;;;;;;4937521;29;20598;-78
2023/01/15 10:33:45;;;;;;;62.30;28.98;;;4.80;99.90;;;;;;4918125;29;20143;-76
2023/01/15 10:36:20;;;;;;;57.00;26.33;;;4.90;99.90;;;;;;4879996;29;20043;-77
2023/01/15 10:39:05;;;;;;;55.88;27.33;;;4.90;99.90;;;;;;4933439;29;20123;-77
2023/01/15 10:41:48;;;;;;;56.35;28.08;;;4.90;99.90;;;;;;4934531;29;20557;-76
2023/01/15 10:44:19;;;;;;;55.80;26.25;;;5.00;99.90;;;;;;4919519;29;20573;-77
2023/01/15 10:46:52;;;;;;;57.78;27.95;;;5.10;99.90;;;;;;4919899;29;20761;-77
2023/01/15 10:49:18;;;;;;;83.90;44.25;;;5.10;99.90;;;;;;4935822;29;20114;-77
2023/01/15 10:51:45;;;;;;;;;;;5.10;99.90;;;;;;4935921;29;20123;-79
2023/01/15 10:54:40;;;;;;;57.97;27.67;;;5.10;99.90;;;;;;4918840;29;19910;-77
2023/01/15 10:57:23;;;;;;;49.45;24.70;;;5.20;99.90;;;;;;4938885;29;20059;-75
2023/01/15 10:59:49;;;;;;;52.88;26.08;;;5.10;99.90;;;;;;4937089;29;20020;-78
2023/01/15 11:02:20;;;;;;;;;;;5.10;99.90;;;;;;4936217;29;20042;-77
2023/01/15 11:04:46;;;;;;;59.67;29.33;;;5.20;99.90;;;;;;4935506;29;19915;-78
2023/01/15 11:07:12;;;;;;;;;;;5.20;99.90;;;;;;4936422;29;20091;-77
2023/01/15 11:09:40;;;;;;;45.25;21.67;;;5.30;99.90;;;;;;4937491;29;19925;-78
2023/01/15 11:20:29;;;;;;;48.45;24.42;;;5.50;99.90;;;;;;4938707;29;20417;-78
2023/01/15 11:22:56;;;;;;;52.03;25.65;;;5.60;99.90;;;;;;4937388;29;20024;-79
2023/01/15 11:25:28;;;;;;;41.53;21.17;;;5.60;99.90;;;;;;4921820;29;20031;-77
2023/01/15 11:27:54;;;;;;;45.40;23.80;;;5.70;99.90;;;;;;4937824;29;20024;-78
2023/01/15 11:30:30;;;;;;;41.67;21.98;;;5.60;99.90;;;;;;4920669;29;20036;-77
2023/01/15 11:33:02;;;;;;;44.22;21.17;;;5.60;99.90;;;;;;4919557;29;20035;-77
2023/01/15 11:35:29;;;;;;;36.47;19.50;;;5.60;99.90;;;;;;4937715;29;20036;-77
2023/01/15 11:38:22;;;;;;;45.30;23.23;;;5.60;99.90;;;;;;4920576;29;20031;-78
2023/01/15 11:40:59;;;;;;;49.78;24.05;;;5.60;99.90;;;;;;4934841;29;20038;-77
2023/01/15 11:52:05;;;;;;;46.47;22.40;;;5.80;99.90;;;;;;4937278;29;20167;-77
2023/01/15 11:54:34;;;;;;;59.42;32.20;;;5.90;99.90;;;;;;4920177;29;20020;-79
2023/01/15 11:57:01;;;;;;;40.50;21.80;;;5.90;99.90;;;;;;4936789;29;20118;-78
2023/01/15 11:59:27;;;;;;;48.97;27.27;;;5.80;99.90;;;;;;4935569;29;20034;-77
2023/01/15 12:01:58;;;;;;;53.85;29.83;;;5.90;99.90;;;;;;4920255;29;20382;-77
2023/01/15 12:04:38;;;;;;;54.83;28.05;;;5.90;99.90;;;;;;4924474;29;20028;-79
2023/01/15 12:07:05;;;;;;;52.97;25.73;;;5.90;99.90;;;;;;4927254;29;20040;-78
2023/01/15 12:10:05;;;;;;;51.85;28.70;;;5.90;99.90;;;;;;4937858;29;20028;-78
2023/01/15 12:12:43;;;;;;;51.20;27.02;;;5.80;99.90;;;;;;4919512;29;20151;-79
2023/01/15 12:15:43;;;;;;;46.05;24.35;;;5.80;99.90;;;;;;4935163;29;20020;-79
2023/01/15 12:18:28;;;;;;;48.72;25.45;;;5.90;99.90;;;;;;4880522;29;20039;-78
2023/01/15 12:21:13;;;;;;;40.05;22.25;;;5.80;99.90;;;;;;4935817;29;20462;-78
2023/01/15 12:24:01;;;;;;;45.38;21.70;;;5.80;99.90;;;;;;4921167;29;20400;-78
2023/01/15 12:26:52;;;;;;;41.75;23.13;;;5.90;99.90;;;;;;4936038;29;20028;-78
2023/01/15 12:29:38;;;;;;;46.67;25.10;;;5.90;99.90;;;;;;4920166;29;20040;-78
2023/01/15 12:32:09;;;;;;;52.70;27.17;;;6.00;99.90;;;;;;4920741;29;20495;-78
2023/01/15 12:34:46;;;;;;;47.03;22.45;;;6.00;99.90;;;;;;4938215;29;20024;-79
2023/01/15 12:37:27;;;;;;;37.67;20.20;;;6.00;99.90;;;;;;4935130;29;20050;-78
2023/01/15 12:40:18;;;;;;;36.75;20.17;;;6.00;99.90;;;;;;4921687;29;20035;-78
2023/01/15 12:45:33;;;;;;;;;;;5.90;99.90;;;;;;4943223;29;20042;-79
2023/01/15 12:48:13;;;;;;;45.55;22.80;;;6.00;99.90;;;;;;4946290;29;19911;-79
2023/01/15 12:50:50;;;;;;;46.85;22.40;;;6.10;99.90;;;;;;4927616;29;20489;-79
2023/01/15 12:53:31;;;;;;;47.08;24.30;;;6.20;99.90;;;;;;4949304;29;20031;-77
2023/01/15 12:56:08;;;;;;;39.47;22.33;;;6.10;99.90;;;;;;4943037;29;20028;-78
2023/01/15 12:58:37;;;;;;;40.58;21.60;;;6.20;99.90;;;;;;4945021;29;20055;-78
2023/01/15 13:01:14;;;;;;;39.80;22.75;;;6.20;99.90;;;;;;4946111;29;20043;-78
2023/01/15 13:03:54;;;;;;;64.40;32.92;;;6.20;99.90;;;;;;4928734;29;20058;-78
2023/01/15 13:06:24;;;;;;;41.50;23.63;;;6.30;99.90;;;;;;4948184;29;20043;-79
2023/01/15 13:09:00;;;;;;;43.15;25.42;;;6.30;99.90;;;;;;4959046;29;20027;-80
2023/01/15 13:11:26;;;;;;;45.67;25.35;;;6.30;99.90;;;;;;4950156;29;20108;-79
2023/01/15 13:13:58;;;;;;;;;;;6.30;99.90;;;;;;4967286;29;20485;-80
2023/01/15 13:16:34;;;;;;;52.50;28.15;;;6.30;99.90;;;;;;4969628;28;19934;-79
2023/01/15 13:19:02;;;;;;;40.10;21.90;;;6.20;99.90;;;;;;4956932;28;20046;-79
2023/01/15 13:21:31;;;;;;;41.10;23.75;;;6.20;99.90;;;;;;4953113;29;20523;-79
2023/01/15 13:24:34;;;;;;;46.35;27.35;;;6.20;99.90;;;;;;4971981;28;20078;-80
2023/01/15 13:27:06;;;;;;;56.70;34.25;;;6.40;99.90;;;;;;4954222;29;20055;-78
2023/01/15 13:29:50;;;;;;;53.85;29.77;;;6.30;99.90;;;;;;4934238;29;20059;-79
2023/01/15 13:32:21;;;;;;;46.47;28.05;;;6.30;99.90;;;;;;4934503;29;20059;-79
2023/01/15 13:35:03;;;;;;;51.08;28.65;;;6.40;99.90;;;;;;4963299;28;20042;-78
2023/01/15 13:37:35;;;;;;;52.03;29.85;;;6.40;99.90;;;;;;4945726;28;20118;-79
2023/01/15 13:40:12;;;;;;;45.97;25.38;;;6.50;99.90;;;;;;4946769;29;20180;-79
2023/01/15 13:42:39;;;;;;;49.80;30.95;;;6.50;99.90;;;;;;4948568;29;20034;-79
2023/01/15 13:45:26;;;;;;;61.67;34.85;;;6.50;99.90;;;;;;4959520;29;20023;-78
2023/01/15 13:47:55;;;;;;;58.63;32.63;;;6.50;99.90;;;;;;4963048;28;20026;-79
2023/01/15 13:50:31;;;;;;;82.15;40.60;;;6.40;99.90;;;;;;4951055;29;20063;-80
2023/01/15 13:53:28;;;;;;;52.13;29.58;;;6.30;99.90;;;;;;4968107;28;20060;-79
2023/01/15 13:56:11;;;;;;;54.20;29.37;;;6.40;99.90;;;;;;4933498;29;20099;-79
2023/01/15 13:58:41;;;;;;;52.13;30.48;;;6.30;99.90;;;;;;4949036;28;20816;-79
2023/01/15 14:01:16;;;;;;;56.40;28.35;;;6.30;99.90;;;;;;4946885;29;20023;-79